Aérodrome :
LOGIN :

S'inscrire | Disclaimer

   EN    FR    IT 

 










Légende :    VFR   VFR Marginal   IFR   IFR Intensif   IFR Très Intensif
Visi : 
Plafond : 
>= 8 km
>= 3000ft
5 à 8 km
1000 à 3000 ft
1500m à 5 km
500 à 1000 ft
800 à 1500m
200 à 500 ft
< 800m
< 200 ft
Symboles :   Orages  Brouillard  Fortes neiges  Fortes précipitations  Vent > 20 kt
SIGMETs :   Divers  Orages  Givrage  Turbulence  Onde Orograph.  Cendres Volcan.






- Altitude de l'aérodrome : 538 ft
- Code IATA : TNF


LFPN - Toussus Le Noble

DERNIER METAR :
  • 071330Z AUTO 25007KT 9999 FEW019 OVC038 10/07 Q1018 TEMPO BKN006

METARs EXPIRÉS :
  • 071300Z AUTO 25009KT 9999 FEW018 OVC040 11/07 Q1018 TEMPO BKN006
  • 071230Z AUTO 25008KT 9999 FEW011 OVC040 11/07 Q1018 TEMPO BKN006
  • 071200Z AUTO 23008KT 9999 BKN009 BKN041 11/08 Q1018 NOSIG
  • 071130Z AUTO 23008KT 9999 FEW035 SCT041 10/08 Q1018 TEMPO BKN006
  • 071100Z AUTO 25007KT 9999 FEW025 BKN034 OVC042 10/08 Q1018 TEMPO BKN007

TAF TAF LFPN
Valide du 07 à 12h jusqu'au 07 à 21h UTC


071100Z 0712/0721 22008KT 9999 BKN020
PROB30
TEMPO 0712/0719 BKN006
PROB30
TEMPO 0719/0721 4000 -DZ BKN003
ATIS : +33 1 39 56 54 70



MET'MAP, la Météo Aéronautique d'un coup d'oeil ! - Copyright ORBIFLY Décembre 2007 - Disclaimer

ORBIFLY MET'MAP TEAM :

Programmation & Développement : Alexandra Zaïnal
Sur une idée originale de : Baudouin d'Aumeries
Assistance à la programmation : Marc-Olivier Méhu
Soutien technique & logistique : Manuel Goepfert

Contact : metmap@orbifly.com




SOURCES & CREDITS :

   NOAA